NCAR-RAP Real-Time Weather Data

Output produced by METARs form (12 August 2020  18:51 UTC)
found at http://weather.rap.ucar.edu/surface/
 
KJAX 121756Z 22008KT 10SM FEW033 FEW150 BKN250 31/23 A3002 RMK AO2 SLP165 T03110233 10311 20233 58007
KJAX 121656Z 28006KT 10SM FEW030 FEW150 BKN250 31/23 A3003 RMK AO2 SLP168 T03060228
KJAX 121556Z 26007KT 10SM FEW030 FEW150 BKN250 29/23 A3004 RMK AO2 SLP172 T02940228
KJAX 121456Z 24005KT 10SM FEW020 FEW150 BKN250 28/23 A3004 RMK AO2 SLP172 T02780228 50003
KJAX 121356Z 32006KT 10SM FEW015 FEW150 BKN250 27/22 A3004 RMK AO2 SLP174 T02670222
KJAX 121256Z 28005KT 10SM FEW150 BKN250 25/22 A3004 RMK AO2 SLP174 T02500222
KJAX 121156Z 27004KT 10SM FEW030 FEW150 BKN250 23/22 A3003 RMK AO2 SLP169 70002 T02280222 10228 20217 51013
KJAX 121056Z 00000KT 10SM FEW030 FEW150 BKN250 22/22 A3002 RMK AO2 SLP167 T02220217 $
KJAX 120956Z 00000KT 10SM BKN250 22/22 A3001 RMK AO2 SLP161 T02220217 $
KJAX 120856Z 00000KT 10SM BKN250 22/22 A2999 RMK AO2 SLP157 T02170217 53001 $
KJAX 120756Z 17003KT 9SM BKN250 22/21 A2999 RMK AO2 SLP156 T02170211 $
KJAX 120656Z 00000KT 10SM BKN250 22/22 A2998 RMK AO2 SLP154 T02220217 $
KJAX 120556Z 00000KT 10SM BKN250 22/22 A2999 RMK AO2 SLP156 T02220217 10233 20222 58005 $
KJAX 120456Z 00000KT 10SM FEW140 BKN250 22/22 A3001 RMK AO2 SLP162 T02220217 403280222 $
KJAX 120356Z 23004KT 10SM FEW140 BKN250 22/22 A3002 RMK AO2 SLP167 T02220217 $
KJAX 120256Z 23003KT 10SM BKN140 OVC250 23/22 A3001 RMK AO2 SLP162 T02280217 50009 $
KJAX 120156Z 00000KT 10SM SCT140 BKN200 BKN250 23/22 A3001 RMK AO2 SLP162 T02280217 $
KJAX 120056Z 00000KT 10SM FEW030 SCT070 BKN140 BKN200 23/22 A2999 RMK AO2 SLP157 OCNL LTGIC DSNT W CB DSNT W T02280217 $
KJAX 112356Z 25006KT 10SM FEW030 SCT140 BKN190 BKN250 23/22 A2998 RMK AO2 LTG DSNT NW SLP152 60002 T02280222 10328 20228 53003 $
KJAX 112256Z 16003KT 10SM SCT050 BKN120 BKN250 23/22 A2996 RMK AO2 LTG DSNT W-N RAE55 TSE48 SLP145 P0000 T02330217 $
KJAX 112249Z 00000KT 10SM -RA SCT050 BKN120 BKN250 23/22 A2996 RMK AO2 LTG DSNT SW-N TSE48 P0000 T02330217 $
KJAX 112156Z 24012KT 6SM -TSRA FEW030CB SCT055 BKN120 BKN250 23/21 A2998 RMK AO2 PK WND 14028/2105 WSHFT 2047 LTG DSNT ALQDS SLP153 CONS LTGICCCCG VC W TS VC W MOV SW P0002 T02280211
KJAX 112107Z 16016G28KT 6SM TSRA SCT032CB BKN045 BKN060 OVC250 23/22 A2999 RMK AO2 PK WND 14028/2105 WSHFT 2047 LTG DSNT SE AND S AND NW CONS LTGICCCCG OHD TS OHD MOV S P0001 T02330217
KJAX 112056Z 14016G21KT 10SM TSRA SCT032CB BKN045 BKN060 OVC250 24/23 A2997 RMK AO2 PK WND 06030/2032 LTG DSNT SE AND S AND NW RAB35 SLP149 CONS LTGICCCCG OHD TS OHD MOV S P0000 60000 T02440228 55010
KJAX 111956Z 00000KT 10SM TS BKN033CB BKN065 BKN250 32/24 A2995 RMK AO2 LTG DSNT E-S TSE32B37 SLP141 FRQ LTGICCCCG VC E TS VC E MOV SE T03220239
KJAX 111937Z VRB03KT 10SM TS BKN032CB BKN250 32/24 A2995 RMK AO2 LTG DSNT E AND SE TSE32B37 FRQ LTGICCCCG VC E TS VC E MOV SE T03220244
KJAX 111856Z 00000KT 10SM SCT032 BKN250 31/24 A2998 RMK AO2 SLP152 T03110244
KJAX 111756Z 00000KT 10SM SCT028 BKN180 BKN250 31/24 A3000 RMK AO2 SLP159 T03110244 10317 20233 58015
KJAX 111656Z 00000KT 10SM SCT022 SCT120 BKN180 BKN250 30/24 A3002 RMK AO2 LTG DSNT S SLP166 T03000244 $
KJAX 111556Z 26007KT 10SM SCT017 BKN170 BKN250 29/25 A3004 RMK AO2 SLP171 T02940250 $
KJAX 111456Z 23004KT 10SM FEW025 FEW100 BKN150 BKN250 27/24 A3004 RMK AO2 SLP174 T02670239 50005 $
KJAX 111356Z 20004KT 10SM FEW025 BKN150 BKN250 25/23 A3004 RMK AO2 SLP174 T02500233 $
KJAX 111256Z 20003KT 10SM FEW021 BKN140 BKN250 24/23 A3004 RMK AO2 SLP173 T02390228 $
KJAX 111156Z 00000KT 10SM SCT021 BKN150 BKN250 23/22 A3003 RMK AO2 SLP169 70350 T02330222 10233 20222 53015 $
KJAX 111056Z 23003KT 10SM FEW023 BKN150 23/22 A3001 RMK AO2 SLP162 T02280222 $
KJAX 110956Z 00000KT 10SM OVC150 23/22 A3000 RMK AO2 SLP158 T02280222 $
KJAX 110856Z 00000KT 10SM SCT190 BKN250 23/22 A2999 RMK AO2 SLP155 T02280222 56017 $
KJAX 110756Z 00000KT 10SM SCT190 BKN250 23/22 A3000 RMK AO2 SLP158 T02280222 $
KJAX 110656Z 22003KT 10SM FEW007 SCT090 BKN160 OVC250 23/22 A3002 RMK AO2 SLP165 T02280222 $
KJAX 110641Z 22004KT 10SM FEW007 SCT090 BKN160 OVC250 23/22 A3003 RMK AO2 T02280222 $
KJAX 110556Z 00000KT 10SM BKN160 OVC250 23/22 A3004 RMK AO2 SLP172 60319 T02330222 10256 20222 55003 $
KJAX 110456Z 18006KT 10SM FEW060 BKN150 OVC210 23/23 A3003 RMK AO2 RAE11 SLP171 P0000 T02330228 403500211 $
KJAX 110356Z 15007KT 10SM -RA OVC110 23/23 A3004 RMK AO2 TSE25 SLP173 P0009 T02330228 $
KJAX 110325Z 06003KT 9SM RA FEW006 OVC120 23/23 A3005 RMK AO2 TSE25 P0004 T02330228 $
KJAX 110256Z 14005KT 8SM TSRA FEW006 FEW060CB BKN120 OVC200 23/23 A3005 RMK AO2 LTG DSNT SE AND S TSE49B50 SLP175 OCNL LTGICCC OHD TS OHD MOV E P0013 60310 T02330228 50013 $
KJAX 110156Z 13006KT 7SM TSRA FEW006 SCT050CB BKN120 OVC200 23/22 A3008 RMK AO2 LTG DSNT NE-S SLP185 FRQ LTGICCC OHD TS OHD MOV E P0041 T02280222 $
KJAX 110143Z 15006KT 10SM -TSRA FEW006 SCT050CB SCT110 23/22 A3008 RMK AO2 LTG DSNT NE-S FRQ LTGICCC OHD TS OHD MOV E P0039 T02280222 $
KJAX 110113Z 15009KT 6SM TSRA BR SCT018 BKN039CB OVC050 23/22 A3006 RMK AO2 LTG DSNT ALQDS CONS LTGICCCCG OHD TS OHD MOV E P0038 T02280217 $
KJAX 110106Z 13009KT 2SM +TSRA BR BKN018 OVC037CB 23/22 A3006 RMK AO2 LTG DSNT ALQDS CONS LTGICCCCG OHD TS OHD MOV E P0037 T02280217 $
KJAX 110056Z 18010KT 3/4SM R08/3000VP6000FT +TSRA BR BKN023 OVC037CB 22/22 A3007 RMK AO2 WSHFT 2355 LTG DSNT ALQDS RAEMMB01 SLP183 CONS LTGICCCCG OHD TS OHD MOV E P0256 T02220217 $
KJAX 110036Z 18009KT 1 1/4SM R08/5000VP6000FT +TSRA BR BKN020 OVC033CB 23/22 A3007 RMK AO2 WSHFT 2355 LTG DSNT ALQDS RAEMMB01 CONS LTGICCG OHD TS OHD MOV E P0210 T02280222 $
KJAX 110015Z COR 18010G20KT 3/4SM R08/1800VP6000FT +TSRA BR BKN013 BKN027CB OVC034 23/23 A3007 RMK AO2 WSHFT 2355 LTG DSNT ALQDS CONS LTGICCG OHD TS OHD MOV E P0088 T02330228 $
KJAX 110000Z COR 16018G28KT 1/2SM R08/3500VP6000FT +TSRA BKN013 BKN027CB OVC055 25/23 A2998 RMK AO2 WSHFT 2346 LTG DSNT ALQDS CONS LTGICCG OHD TS OHD MOV E P0030 T02500228 $
KJAX 102358Z 17015G48KT 1/2SM +TSRA BKN013 BKN031CB OVC060 26/22 A3000 RMK AO2 WSHFT 2344 LTG DSNT ALQDS CONS LTGICCG OHD TS OHD MOV E P0018 T02560222 RVRNO
KJAX 102350Z 04032G48KT 1/2SM +TSRA SCT012 BKN038CB OVC100 24/19 A3000 RMK AO2 PK WND 03048/2349 LTG DSNT ALQDS RAB46 TSE23B31 PRESRR CONS LTGICCG OHD TS OHD MOV E P0006 RVRNO
KJAX 102347Z 01030G46KT 350V050 3/4SM +TSRA FEW035CB SCT060 SCT100 BKN250 27/21 A2999 RMK AO2 PK WND 36046/2347 RAB46 TSE23B31 CONS LTGICCG OHD TS OHD MOV E P0000 T02670211 RVRNO
KJAX 102331Z 11008KT 10SM TS FEW035CB FEW060 SCT100 BKN250 30/23 A2996 RMK AO2 LTG DSNT N AND NE AND S TSE23B31 OCNL LTGICCG OHD TS OHD MOV E T03000233
KJAX 102256Z 14008KT 10SM FEW035 FEW050 SCT180 BKN250 31/24 A2998 RMK AO2 LTG DSNT ALQDS SLP151 TCU DSNT S AND SW T03060239
KJAX 102156Z 14007KT 10SM FEW039 SCT055 SCT180 BKN250 32/24 A2998 RMK AO2 SLP153 T03170239
KJAX 102056Z VRB04KT 10SM SCT050 SCT180 SCT250 33/23 A3000 RMK AO2 SLP158 T03330233 56028
KJAX 101956Z 00000KT 10SM SCT050 SCT150 SCT250 33/22 A3001 RMK AO2 SLP163 T03330222
KJAX 101856Z 30004KT 10SM SCT050 SCT250 34/23 A3005 RMK AO2 SLP175 T03390228